Time;durP1;ratioP1;P1;durP2;ratioP2;P2;SDS_P1;SDS_P2;PMS_P1;PMS_P2;Temp;Humidity;BMP_temperature;BMP_pressure;BME280_temperature;BME280_humidity;BME280_pressure;Samples;Min_cycle;Max_cycle;Signal;HPM_P1;HPM_P2
2021/01/30 00:02:20;;;;;;;15.75;4.72;;;13.20;99.90;;;;;;5096278;28;20130;-65
2021/01/30 00:04:49;;;;;;;12.55;4.80;;;13.20;99.90;;;;;;5096459;28;20386;-64
2021/01/30 00:07:16;;;;;;;15.20;4.78;;;13.20;99.90;;;;;;5096099;28;20044;-65
2021/01/30 00:09:44;;;;;;;12.60;5.70;;;13.20;99.90;;;;;;5096063;28;20117;-65
2021/01/30 00:12:11;;;;;;;10.40;4.75;;;13.20;99.90;;;;;;5096154;28;20115;-64
2021/01/30 00:14:40;;;;;;;10.13;4.10;;;13.20;99.90;;;;;;5096162;28;20051;-65
2021/01/30 00:17:08;;;;;;;13.80;5.45;;;13.20;99.90;;;;;;5079808;28;20047;-65
2021/01/30 00:19:37;;;;;;;9.88;4.88;;;13.20;99.90;;;;;;5095701;28;20127;-65
2021/01/30 00:22:12;;;;;;;12.27;4.00;;;13.20;99.90;;;;;;5094875;28;20048;-64
2021/01/30 00:24:48;;;;;;;10.35;5.38;;;13.10;99.90;;;;;;5095482;28;20044;-64
2021/01/30 00:27:18;;;;;;;13.40;3.95;;;13.10;99.90;;;;;;5094962;28;20062;-65
2021/01/30 00:29:47;;;;;;;12.65;4.25;;;13.10;99.90;;;;;;5095708;28;20468;-66
2021/01/30 00:32:16;;;;;;;7.25;3.67;;;13.10;99.90;;;;;;5096108;28;20051;-65
2021/01/30 00:34:44;;;;;;;9.85;5.05;;;13.10;99.90;;;;;;5095597;28;20532;-64
2021/01/30 00:37:19;;;;;;;25.17;10.93;;;13.10;99.90;;;;;;5094317;28;20080;-64
2021/01/30 00:39:47;;;;;;;13.68;8.05;;;13.10;99.90;;;;;;5095651;28;20127;-64
2021/01/30 00:42:16;;;;;;;30.15;6.65;;;13.10;99.90;;;;;;5094318;28;20052;-64
2021/01/30 00:44:44;;;;;;;12.82;5.60;;;13.10;99.90;;;;;;5095404;28;20047;-64
2021/01/30 00:47:12;;;;;;;14.57;5.72;;;13.10;99.90;;;;;;5095278;28;20075;-64
2021/01/30 00:49:41;;;;;;;12.98;5.18;;;13.10;99.90;;;;;;5095553;28;20052;-64
2021/01/30 00:52:09;;;;;;;12.40;5.40;;;13.10;99.90;;;;;;5093893;28;20048;-64
2021/01/30 00:54:37;;;;;;;12.10;4.78;;;13.10;99.90;;;;;;5094001;28;20559;-64
2021/01/30 00:57:04;;;;;;;10.30;4.47;;;13.10;99.90;;;;;;5095022;28;20543;-64
2021/01/30 00:59:32;;;;;;;14.00;3.90;;;13.10;99.90;;;;;;5095236;28;20089;-64
2021/01/30 01:02:00;;;;;;;13.70;4.38;;;13.20;99.90;;;;;;5094068;28;20485;-64
2021/01/30 01:04:35;;;;;;;16.90;5.20;;;13.10;99.90;;;;;;5094104;28;20379;-64
2021/01/30 01:07:02;;;;;;;11.82;4.93;;;13.10;99.90;;;;;;5095020;28;20444;-64
2021/01/30 01:09:30;;;;;;;13.10;4.10;;;13.00;99.90;;;;;;5092849;28;20044;-64
2021/01/30 01:11:57;;;;;;;9.73;4.32;;;13.00;99.90;;;;;;5093142;28;20155;-64
2021/01/30 01:14:26;;;;;;;9.57;4.57;;;13.00;99.90;;;;;;5093630;28;20051;-64
2021/01/30 01:16:53;;;;;;;13.13;4.38;;;13.00;99.90;;;;;;5094503;28;20505;-64
2021/01/30 01:19:21;;;;;;;10.25;4.07;;;13.00;99.90;;;;;;5094708;28;20044;-64
2021/01/30 01:21:52;;;;;;;13.93;4.03;;;13.10;99.90;;;;;;5093571;28;20637;-64
2021/01/30 01:24:21;;;;;;;10.52;5.38;;;13.00;99.90;;;;;;5094734;28;20434;-64
2021/01/30 01:26:49;;;;;;;13.13;4.13;;;13.10;99.90;;;;;;5094981;28;20463;-64
2021/01/30 01:29:19;;;;;;;8.77;4.05;;;13.10;99.90;;;;;;5093515;28;20425;-64
2021/01/30 01:31:51;;;;;;;11.75;4.28;;;13.10;99.90;;;;;;5094666;28;20036;-64
2021/01/30 01:34:21;;;;;;;11.05;4.57;;;13.00;99.90;;;;;;5094462;28;20056;-64
2021/01/30 01:36:56;;;;;;;11.38;4.25;;;13.00;99.90;;;;;;5094686;28;20048;-64
2021/01/30 01:39:24;;;;;;;13.00;4.80;;;13.00;99.90;;;;;;5094573;28;20055;-64
2021/01/30 01:41:56;;;;;;;10.00;3.55;;;13.00;99.90;;;;;;5094552;28;20059;-64
2021/01/30 01:44:24;;;;;;;8.35;4.10;;;13.00;99.90;;;;;;5094543;28;20119;-64
2021/01/30 01:46:52;;;;;;;11.52;4.38;;;12.90;99.90;;;;;;5094365;28;20409;-64
2021/01/30 01:49:26;;;;;;;8.25;4.22;;;12.90;99.90;;;;;;5094176;28;20044;-64
2021/01/30 01:52:02;;;;;;;13.10;4.78;;;12.90;99.90;;;;;;5094293;28;20078;-64
2021/01/30 01:54:32;;;;;;;15.40;4.88;;;12.90;99.90;;;;;;5094672;28;20468;-64
2021/01/30 01:57:08;;;;;;;13.05;5.93;;;12.90;99.90;;;;;;5093697;28;20055;-64
2021/01/30 01:59:43;;;;;;;9.30;4.90;;;12.90;99.90;;;;;;5093962;28;20044;-64
2021/01/30 02:02:11;;;;;;;11.80;4.82;;;12.90;99.90;;;;;;5094247;28;20052;-64
2021/01/30 02:04:39;;;;;;;11.85;4.00;;;12.90;99.90;;;;;;5094151;28;20055;-64
2021/01/30 02:07:06;;;;;;;12.02;4.90;;;12.90;99.90;;;;;;5093957;28;20048;-64
2021/01/30 02:09:33;;;;;;;9.32;3.22;;;12.80;99.90;;;;;;5094300;28;20086;-64
2021/01/30 02:12:06;;;;;;;7.95;3.70;;;12.90;99.90;;;;;;5093899;28;20044;-64
2021/01/30 02:14:37;;;;;;;5.13;2.90;;;12.80;99.90;;;;;;5093826;28;20387;-64
2021/01/30 02:17:12;;;;;;;11.27;3.83;;;12.80;99.90;;;;;;5093962;28;20044;-64
2021/01/30 02:20:18;;;;;;;10.57;3.50;;;12.80;99.90;;;;;;5093913;28;20386;-64
2021/01/30 02:23:12;;;;;;;7.65;2.90;;;12.80;99.90;;;;;;5093728;28;20036;-64
2021/01/30 02:25:45;;;;;;;8.10;3.42;;;12.70;99.90;;;;;;5092786;28;20066;-64
2021/01/30 02:28:27;;;;;;;5.35;2.90;;;12.70;99.90;;;;;;5093793;28;20051;-64
2021/01/30 02:31:09;;;;;;;8.00;3.22;;;12.70;99.90;;;;;;5092598;28;20134;-64
2021/01/30 02:33:58;;;;;;;8.27;2.40;;;12.70;99.90;;;;;;5093679;28;20059;-64
2021/01/30 02:36:37;;;;;;;4.15;2.55;;;12.60;99.90;;;;;;5093809;28;20532;-64
2021/01/30 02:39:28;;;;;;;4.25;2.55;;;12.60;99.90;;;;;;5093282;28;20490;-64
2021/01/30 02:42:02;;;;;;;6.13;2.95;;;12.50;99.90;;;;;;5093436;28;20033;-64
2021/01/30 02:44:36;;;;;;;4.13;1.95;;;12.50;99.90;;;;;;5093711;28;20044;-64
2021/01/30 02:47:06;;;;;;;5.75;2.00;;;12.50;99.90;;;;;;5093612;28;20071;-64
2021/01/30 02:49:38;;;;;;;7.97;2.30;;;12.50;99.90;;;;;;5092403;28;20516;-64
2021/01/30 02:52:17;;;;;;;7.18;2.55;;;12.50;99.90;;;;;;5092619;28;20048;-64
2021/01/30 02:54:45;;;;;;;4.95;1.90;;;12.60;99.90;;;;;;5092289;28;20067;-64
2021/01/30 02:57:17;;;;;;;5.30;2.35;;;12.60;99.90;;;;;;5093663;28;20117;-64
2021/01/30 02:59:52;;;;;;;6.75;1.85;;;12.50;99.90;;;;;;5093600;28;20117;-64
2021/01/30 03:02:22;;;;;;;6.13;2.38;;;12.50;99.90;;;;;;5092265;28;20048;-64
2021/01/30 03:04:55;;;;;;;5.65;2.35;;;12.40;99.90;;;;;;5093349;28;20086;-64
2021/01/30 03:07:48;;;;;;;5.32;1.90;;;12.50;99.90;;;;;;5093589;28;20062;-64
2021/01/30 03:10:32;;;;;;;3.75;1.92;;;12.50;99.90;;;;;;5095801;28;20044;-64
2021/01/30 03:13:12;;;;;;;2.90;1.33;;;12.40;99.90;;;;;;5097297;28;20044;-64
2021/01/30 03:16:01;;;;;;;5.82;2.00;;;12.40;99.90;;;;;;5097453;28;20489;-64
2021/01/30 03:18:44;;;;;;;5.05;2.00;;;12.30;99.90;;;;;;5096415;28;20409;-64
2021/01/30 03:21:14;;;;;;;3.30;2.15;;;12.30;99.90;;;;;;5097099;28;20046;-64
2021/01/30 03:23:41;;;;;;;6.15;2.47;;;12.30;99.90;;;;;;5096972;28;20089;-64
2021/01/30 03:26:15;;;;;;;3.88;2.13;;;12.30;99.90;;;;;;5097362;28;20044;-64
2021/01/30 03:28:42;;;;;;;5.60;2.10;;;12.30;99.90;;;;;;5095594;28;20068;-64
2021/01/30 03:31:13;;;;;;;5.07;1.90;;;12.30;99.90;;;;;;5096951;28;20048;-64
2021/01/30 03:33:41;;;;;;;6.43;2.63;;;12.30;99.90;;;;;;5096959;28;20044;-64
2021/01/30 03:36:09;;;;;;;6.93;2.78;;;12.40;99.90;;;;;;5096800;28;20059;-64
2021/01/30 03:38:36;;;;;;;4.80;2.67;;;12.30;99.90;;;;;;5095524;28;20482;-64
2021/01/30 03:41:05;;;;;;;5.55;2.25;;;12.30;99.90;;;;;;5096853;28;20040;-64
2021/01/30 03:43:32;;;;;;;5.50;2.53;;;12.30;99.90;;;;;;5095576;28;20045;-64
2021/01/30 03:45:59;;;;;;;4.47;2.40;;;12.30;99.90;;;;;;5096633;28;20044;-64
2021/01/30 03:48:26;;;;;;;5.72;2.63;;;12.30;99.90;;;;;;5096539;28;20081;-64
2021/01/30 03:50:55;;;;;;;4.78;1.83;;;12.30;99.90;;;;;;5096461;28;20090;-64
2021/01/30 03:53:22;;;;;;;9.35;2.03;;;12.30;99.90;;;;;;5096649;28;20052;-64
2021/01/30 03:55:49;;;;;;;10.25;2.53;;;12.30;99.90;;;;;;5096636;28;20055;-64
2021/01/30 03:58:16;;;;;;;6.80;3.10;;;12.30;99.90;;;;;;5096387;28;20378;-64
2021/01/30 04:00:43;;;;;;;7.18;4.00;;;12.30;99.90;;;;;;5096498;28;20501;-64
2021/01/30 04:03:10;;;;;;;5.88;2.28;;;12.30;99.90;;;;;;5096447;28;20047;-64
2021/01/30 04:05:37;;;;;;;7.57;2.88;;;12.20;99.90;;;;;;5096169;28;20040;-64
2021/01/30 04:08:05;;;;;;;6.05;2.13;;;12.20;99.90;;;;;;5096275;28;20044;-64
2021/01/30 04:10:36;;;;;;;7.10;2.88;;;12.20;99.90;;;;;;5096234;28;20524;-64
2021/01/30 04:13:09;;;;;;;6.68;2.33;;;12.30;99.90;;;;;;5094929;28;20092;-64
2021/01/30 04:15:43;;;;;;;6.18;2.53;;;12.20;99.90;;;;;;5095002;28;20055;-63
2021/01/30 04:18:13;;;;;;;6.75;2.92;;;12.20;99.90;;;;;;5095933;28;20048;-64
2021/01/30 04:20:41;;;;;;;5.00;2.10;;;12.30;99.90;;;;;;5094635;28;20056;-64
2021/01/30 04:23:10;;;;;;;7.13;3.17;;;12.20;99.90;;;;;;5095836;28;20173;-64
2021/01/30 04:25:37;;;;;;;4.28;2.58;;;12.20;99.90;;;;;;5096048;28;20456;-64
2021/01/30 04:28:05;;;;;;;4.78;2.35;;;12.20;99.90;;;;;;5095648;28;20040;-64
2021/01/30 04:30:34;;;;;;;5.60;2.92;;;12.10;99.90;;;;;;5095706;28;20437;-63
2021/01/30 04:33:02;;;;;;;9.98;2.70;;;12.10;99.90;;;;;;5095600;28;20410;-64
2021/01/30 04:35:33;;;;;;;3.90;2.53;;;12.00;99.90;;;;;;5095796;28;20043;-64
2021/01/30 04:38:00;;;;;;;5.32;2.08;;;12.10;99.90;;;;;;5094279;28;20557;-63
2021/01/30 04:40:41;;;;;;;4.18;2.13;;;12.10;99.90;;;;;;5095670;28;20130;-64
2021/01/30 04:43:19;;;;;;;4.55;2.08;;;12.10;99.90;;;;;;5095577;28;20508;-64
2021/01/30 04:46:10;;;;;;;3.97;2.85;;;12.10;99.90;;;;;;5095763;28;20439;-64
2021/01/30 04:49:16;;;;;;;6.03;2.47;;;12.10;99.90;;;;;;5094351;28;20056;-64
2021/01/30 04:52:07;;;;;;;6.22;1.80;;;12.10;99.90;;;;;;5082332;28;20517;-63
2021/01/30 04:54:34;;;;;;;4.80;1.90;;;12.00;99.90;;;;;;5095413;28;20059;-64
2021/01/30 04:57:23;;;;;;;8.48;2.80;;;12.00;99.90;;;;;;5095247;28;20044;-64
2021/01/30 05:00:18;;;;;;;8.25;2.47;;;12.00;99.90;;;;;;5095100;28;20044;-64
2021/01/30 05:03:09;;;;;;;3.78;1.50;;;12.00;99.90;;;;;;5095349;28;20052;-64
2021/01/30 05:05:39;;;;;;;4.93;2.33;;;11.90;99.90;;;;;;5095363;28;20455;-64
2021/01/30 05:08:26;;;;;;;6.75;1.95;;;12.00;99.90;;;;;;5093830;28;20076;-63
2021/01/30 05:11:01;;;;;;;5.68;3.55;;;11.90;99.90;;;;;;5094935;28;20051;-63
2021/01/30 05:13:36;;;;;;;5.70;1.92;;;11.90;99.90;;;;;;5095088;28;20052;-64
2021/01/30 05:16:11;;;;;;;5.05;2.35;;;11.90;99.90;;;;;;5094979;28;20052;-64
2021/01/30 05:18:45;;;;;;;5.47;2.78;;;11.90;99.90;;;;;;5094794;28;20048;-63
2021/01/30 05:21:24;;;;;;;5.70;2.65;;;11.80;99.90;;;;;;5093502;28;20101;-64
2021/01/30 05:23:53;;;;;;;5.68;1.80;;;11.80;99.90;;;;;;5094959;28;20064;-64
2021/01/30 05:26:23;;;;;;;3.58;2.35;;;11.90;99.90;;;;;;5094592;28;20485;-41
2021/01/30 05:29:09;;;;;;;4.72;1.60;;;11.90;99.90;;;;;;5070355;28;20041;-53
2021/01/30 05:31:47;;;;;;;3.75;2.70;;;11.80;99.90;;;;;;5072353;28;20108;-51
2021/01/30 05:34:34;;;;;;;3.40;1.83;;;11.80;99.90;;;;;;5040163;28;20063;-54
2021/01/30 05:37:12;;;;;;;4.70;2.47;;;11.80;99.90;;;;;;5072445;28;20065;-52
2021/01/30 05:40:23;;;;;;;8.45;2.00;;;11.80;99.90;;;;;;5073969;28;20053;-54
2021/01/30 05:43:08;;;;;;;4.30;2.03;;;11.70;99.90;;;;;;5072908;28;20394;-55
2021/01/30 05:45:54;;;;;;;3.17;1.92;;;11.70;99.90;;;;;;5074221;28;20506;-53
2021/01/30 05:48:44;;;;;;;5.05;2.50;;;11.70;99.90;;;;;;5072804;28;20055;-52
2021/01/30 05:51:38;;;;;;;8.32;2.40;;;11.70;99.90;;;;;;5056188;28;20056;-52
2021/01/30 05:54:05;;;;;;;5.80;2.08;;;11.70;99.90;;;;;;5056194;28;20149;-51
2021/01/30 05:56:42;;;;;;;5.95;2.90;;;11.60;99.90;;;;;;5072580;28;20122;-51
2021/01/30 05:59:26;;;;;;;4.38;2.40;;;11.60;99.90;;;;;;5056230;28;20044;-50
2021/01/30 06:02:15;;;;;;;5.68;1.98;;;11.60;99.90;;;;;;5073940;28;20049;-53
2021/01/30 06:04:46;;;;;;;4.85;1.73;;;11.50;99.90;;;;;;5072611;28;20070;-48
2021/01/30 06:07:35;;;;;;;3.83;1.77;;;11.60;99.90;;;;;;5055766;28;20049;-54
2021/01/30 06:10:29;;;;;;;10.75;3.45;;;11.60;99.90;;;;;;5073958;28;20410;-51
2021/01/30 06:13:25;;;;;;;7.63;2.17;;;11.50;99.90;;;;;;5055658;28;20072;-54
2021/01/30 06:15:57;;;;;;;7.85;3.40;;;11.60;99.90;;;;;;5073107;28;20136;-49
2021/01/30 06:18:30;;;;;;;7.63;2.60;;;11.70;99.90;;;;;;5073763;28;20482;-49
2021/01/30 06:20:59;;;;;;;4.50;2.30;;;11.90;99.90;;;;;;5055486;28;20086;-53
2021/01/30 06:23:27;;;;;;;6.13;2.38;;;12.30;99.90;;;;;;5072586;28;20132;-49
2021/01/30 06:26:20;;;;;;;4.32;2.55;;;12.30;99.90;;;;;;5072559;28;20056;-49
2021/01/30 06:29:03;;;;;;;5.80;1.80;;;12.50;99.90;;;;;;5073597;28;20041;-49
2021/01/30 06:31:39;;;;;;;5.13;2.30;;;12.70;99.90;;;;;;5073591;28;20074;-49
2021/01/30 06:34:28;;;;;;;3.70;2.28;;;13.20;99.90;;;;;;5089301;28;20140;-52
2021/01/30 06:36:57;;;;;;;6.25;2.33;;;13.90;99.90;;;;;;5073585;28;20545;-49
2021/01/30 06:39:38;;;;;;;5.47;1.98;;;14.60;99.90;;;;;;5073525;28;20045;-50
2021/01/30 06:42:16;;;;;;;4.32;2.67;;;15.30;99.90;;;;;;5073570;28;20442;-51
2021/01/30 06:44:43;;;;;;;8.63;4.65;;;16.00;99.90;;;;;;5075429;28;20056;-51
2021/01/30 06:47:20;;;;;;;12.80;4.20;;;16.60;99.70;;;;;;5076446;28;20072;-51
2021/01/30 06:49:52;;;;;;;8.23;4.28;;;17.30;98.40;;;;;;5077994;28;20139;-50
2021/01/30 06:52:27;;;;;;;6.40;3.22;;;18.00;96.90;;;;;;5059758;28;20051;-51
2021/01/30 06:55:13;;;;;;;3.80;2.30;;;18.60;95.20;;;;;;5077454;28;20055;-52
2021/01/30 06:58:01;;;;;;;5.93;2.47;;;19.30;93.60;;;;;;5076134;28;20056;-49
2021/01/30 07:00:35;;;;;;;5.97;2.10;;;19.90;91.90;;;;;;5059772;28;20463;-51
2021/01/30 07:03:04;;;;;;;9.13;3.78;;;20.40;90.40;;;;;;5059632;28;20056;-53
2021/01/30 07:05:58;;;;;;;19.85;9.27;;;20.80;88.20;;;;;;5059667;28;20056;-50
2021/01/30 07:08:50;;;;;;;21.83;11.57;;;21.30;85.60;;;;;;5059405;28;20053;-52
2021/01/30 07:11:48;;;;;;;15.63;9.45;;;21.90;82.70;;;;;;5076997;28;20056;-50
2021/01/30 07:14:29;;;;;;;14.18;7.82;;;22.50;79.70;;;;;;5076994;28;20059;-54
2021/01/30 07:17:13;;;;;;;16.92;8.32;;;23.10;77.30;;;;;;5059552;28;20045;-50
2021/01/30 07:19:54;;;;;;;19.35;11.25;;;23.50;75.00;;;;;;5059262;28;20079;-53
2021/01/30 07:22:29;;;;;;;27.38;16.38;;;23.60;73.80;;;;;;5042569;28;20049;-56
2021/01/30 07:25:07;;;;;;;26.10;15.95;;;23.70;73.00;;;;;;5075744;28;20563;-58
2021/01/30 07:28:15;;;;;;;25.95;17.10;;;23.60;72.50;;;;;;5075640;28;20135;-53
2021/01/30 07:30:51;;;;;;;21.40;14.35;;;23.30;72.20;;;;;;5076582;28;20127;-54
2021/01/30 07:33:28;;;;;;;15.80;10.45;;;23.00;72.20;;;;;;5059196;28;20474;-53
2021/01/30 07:36:06;;;;;;;16.77;8.98;;;22.60;72.90;;;;;;5058950;28;20040;-51
2021/01/30 07:38:46;;;;;;;29.90;11.35;;;22.30;73.60;;;;;;5075188;28;20056;-54
2021/01/30 07:41:36;;;;;;;10.07;6.88;;;21.90;74.40;;;;;;5075297;28;20052;-54
2021/01/30 07:44:18;;;;;;;10.88;4.43;;;21.80;74.60;;;;;;5059250;28;20048;-54
2021/01/30 07:46:56;;;;;;;5.63;3.80;;;21.60;74.70;;;;;;5075307;28;20491;-55
2021/01/30 07:49:29;;;;;;;7.47;3.40;;;21.60;74.70;;;;;;5058474;28;20049;-54
2021/01/30 07:52:02;;;;;;;6.15;2.58;;;21.50;74.60;;;;;;5076145;28;20487;-56
2021/01/30 07:54:29;;;;;;;5.88;2.92;;;21.40;74.80;;;;;;5074904;28;20183;-54
2021/01/30 07:57:25;;;;;;;8.25;3.42;;;21.40;75.10;;;;;;5058133;28;20051;-57
2021/01/30 08:00:02;;;;;;;6.72;2.80;;;21.40;75.20;;;;;;5068245;28;20131;-53
2021/01/30 08:03:02;;;;;;;7.90;3.47;;;21.40;75.10;;;;;;5076270;28;20056;-55
2021/01/30 08:05:36;;;;;;;14.15;6.40;;;21.50;74.80;;;;;;5074803;28;20406;-55
2021/01/30 08:08:13;;;;;;;19.48;10.90;;;21.60;74.80;;;;;;5074845;28;20052;-53
2021/01/30 08:11:10;;;;;;;19.00;11.70;;;21.60;74.60;;;;;;5074641;28;20138;-52
2021/01/30 08:13:55;;;;;;;11.90;7.53;;;21.50;75.20;;;;;;5058304;28;20052;-52
2021/01/30 08:16:37;;;;;;;9.20;5.25;;;21.20;75.10;;;;;;5058331;28;20059;-53
2021/01/30 08:19:17;;;;;;;9.55;3.80;;;21.00;75.80;;;;;;5074568;28;20049;-52
2021/01/30 08:22:03;;;;;;;8.32;3.85;;;20.80;76.20;;;;;;5075969;28;20051;-53
2021/01/30 08:24:47;;;;;;;5.70;2.88;;;20.60;77.00;;;;;;5075756;28;20049;-55
2021/01/30 08:27:30;;;;;;;5.93;3.70;;;20.40;77.50;;;;;;5075544;28;20056;-54
2021/01/30 08:30:03;;;;;;;5.85;3.00;;;20.30;78.20;;;;;;5058372;28;20052;-55
2021/01/30 08:32:34;;;;;;;6.07;2.70;;;20.20;78.30;;;;;;5057841;28;20058;-54
2021/01/30 08:35:19;;;;;;;5.97;3.10;;;20.00;79.00;;;;;;5074376;28;20052;-52
2021/01/30 08:38:01;;;;;;;6.65;3.38;;;19.90;79.70;;;;;;5057395;28;20064;-53
2021/01/30 08:40:53;;;;;;;8.73;4.68;;;19.80;79.80;;;;;;5074322;28;20041;-54
2021/01/30 08:43:46;;;;;;;13.68;6.28;;;19.70;80.30;;;;;;5075472;28;20056;-54
2021/01/30 08:46:40;;;;;;;9.02;5.05;;;19.70;80.40;;;;;;5074243;28;20153;-53
2021/01/30 08:49:14;;;;;;;10.05;4.32;;;19.70;80.60;;;;;;5074162;28;20055;-54
2021/01/30 08:51:47;;;;;;;11.82;4.55;;;19.70;80.90;;;;;;5073944;28;20449;-54
2021/01/30 08:54:36;;;;;;;7.55;3.88;;;19.70;80.90;;;;;;5075438;28;20048;-54
2021/01/30 08:57:25;;;;;;;7.18;3.15;;;19.80;80.80;;;;;;5073784;28;20060;-52
2021/01/30 08:59:59;;;;;;;4.63;3.38;;;19.90;81.30;;;;;;5068531;28;20048;-54
2021/01/30 09:02:33;;;;;;;6.40;3.72;;;19.90;81.30;;;;;;5057205;28;20048;-55
2021/01/30 09:05:10;;;;;;;6.18;2.97;;;19.90;81.10;;;;;;5073704;28;20086;-55
2021/01/30 09:07:38;;;;;;;6.43;3.08;;;19.80;81.60;;;;;;5073762;28;20048;-53
2021/01/30 09:10:37;;;;;;;10.63;3.40;;;19.80;81.00;;;;;;5074867;28;20052;-54
2021/01/30 09:13:18;;;;;;;7.50;3.17;;;19.80;81.20;;;;;;5073483;28;20047;-53
2021/01/30 09:15:48;;;;;;;5.90;3.05;;;19.80;81.20;;;;;;5073375;28;20118;-50
2021/01/30 09:18:49;;;;;;;5.53;3.17;;;19.90;81.40;;;;;;5073330;28;20118;-52
2021/01/30 09:21:25;;;;;;;6.75;3.03;;;19.80;81.60;;;;;;5035931;28;20052;-50
2021/01/30 09:24:00;;;;;;;6.10;3.03;;;19.70;82.00;;;;;;5026110;28;20135;-54
2021/01/30 09:27:06;;;;;;;6.57;3.65;;;19.80;81.60;;;;;;5073392;28;20137;-54
2021/01/30 09:29:54;;;;;;;5.95;3.47;;;19.90;81.90;;;;;;5073822;28;20067;-54
2021/01/30 09:32:28;;;;;;;4.43;3.15;;;19.80;81.80;;;;;;5057547;28;20049;-54
2021/01/30 09:35:04;;;;;;;6.85;3.78;;;19.70;81.20;;;;;;5056872;28;20041;-55
2021/01/30 09:37:37;;;;;;;6.28;3.70;;;19.60;81.70;;;;;;5073134;28;20135;-53
2021/01/30 09:40:09;;;;;;;7.25;3.10;;;19.50;82.20;;;;;;5056461;28;20067;-54
2021/01/30 09:42:36;;;;;;;5.22;3.00;;;19.60;82.50;;;;;;5073110;28;20461;-53
2021/01/30 09:45:15;;;;;;;7.82;3.70;;;19.60;82.80;;;;;;5074230;28;20092;-52
2021/01/30 09:47:50;;;;;;;4.80;3.08;;;19.70;83.60;;;;;;5072970;28;20079;-54
2021/01/30 09:50:24;;;;;;;8.68;3.05;;;19.70;83.10;;;;;;5074141;28;20143;-54
2021/01/30 09:52:56;;;;;;;8.68;3.25;;;19.80;82.80;;;;;;5056396;28;20066;-49
2021/01/30 09:55:27;;;;;;;8.73;3.15;;;19.90;81.80;;;;;;5072748;28;20044;-56
2021/01/30 09:58:05;;;;;;;16.13;3.25;;;20.00;81.60;;;;;;5056417;28;20080;-53
2021/01/30 10:00:44;;;;;;;6.68;2.85;;;20.00;81.40;;;;;;5073952;28;20055;-55
2021/01/30 10:03:26;;;;;;;5.97;3.28;;;20.20;81.80;;;;;;5073816;28;20055;-54
2021/01/30 10:05:54;;;;;;;6.50;3.03;;;20.20;82.00;;;;;;5074004;28;20044;-54
2021/01/30 10:08:29;;;;;;;6.97;3.10;;;20.20;82.60;;;;;;5074099;28;20485;-53
2021/01/30 10:11:22;;;;;;;5.78;3.08;;;20.10;82.00;;;;;;5072793;28;20052;-53
2021/01/30 10:13:58;;;;;;;6.82;3.83;;;20.10;81.80;;;;;;5072692;28;20418;-51
2021/01/30 10:16:31;;;;;;;5.88;3.28;;;20.10;81.60;;;;;;5073651;28;20080;-54
2021/01/30 10:19:23;;;;;;;7.85;2.72;;;20.20;80.80;;;;;;5055769;28;20483;-54
2021/01/30 10:21:55;;;;;;;5.35;3.17;;;20.20;80.80;;;;;;5055865;28;20048;-52
2021/01/30 10:24:30;;;;;;;5.45;2.60;;;20.30;80.70;;;;;;5072406;28;20059;-53
2021/01/30 10:27:14;;;;;;;4.57;2.75;;;20.30;79.70;;;;;;5072150;28;20099;-54
2021/01/30 10:29:46;;;;;;;8.40;3.20;;;20.40;79.70;;;;;;5073709;28;20122;-55
2021/01/30 10:32:19;;;;;;;3.70;2.15;;;20.40;79.30;;;;;;5073906;28;20048;-53
2021/01/30 10:34:56;;;;;;;11.70;3.20;;;20.40;79.20;;;;;;5073995;28;20067;-55
2021/01/30 10:37:34;;;;;;;6.05;3.28;;;20.30;79.30;;;;;;5072070;28;20075;-54
2021/01/30 10:40:16;;;;;;;4.85;2.90;;;20.20;79.20;;;;;;5072425;28;20074;-54
2021/01/30 10:42:44;;;;;;;9.15;3.25;;;20.20;78.80;;;;;;5073550;28;20131;-55
2021/01/30 10:45:29;;;;;;;8.68;2.78;;;20.30;78.50;;;;;;5055628;28;20049;-53
2021/01/30 10:48:12;;;;;;;6.70;2.45;;;20.30;78.50;;;;;;5072087;28;20045;-57
2021/01/30 10:50:47;;;;;;;8.38;3.50;;;20.30;78.50;;;;;;5073785;28;20056;-55
2021/01/30 10:53:37;;;;;;;6.22;3.08;;;20.40;78.00;;;;;;5073808;28;20443;-55
2021/01/30 10:56:34;;;;;;;7.82;3.13;;;20.20;77.40;;;;;;5091005;28;20078;-57
2021/01/30 10:59:20;;;;;;;4.30;2.25;;;20.30;76.80;;;;;;5070756;28;20081;-56
2021/01/30 11:01:48;;;;;;;5.80;2.93;;;20.30;77.40;;;;;;5103307;28;20049;-55
2021/01/30 11:04:25;;;;;;;8.10;2.95;;;20.30;77.50;;;;;;5077308;28;20294;-54
2021/01/30 11:07:02;;;;;;;5.78;3.30;;;20.30;77.70;;;;;;5093213;28;20166;-54
2021/01/30 11:09:33;;;;;;;4.82;2.42;;;20.30;77.60;;;;;;5091584;28;20490;-55
2021/01/30 11:12:13;;;;;;;8.25;2.78;;;20.30;77.40;;;;;;5091945;28;20394;-55
2021/01/30 11:14:40;;;;;;;8.70;2.60;;;20.30;77.40;;;;;;5092724;28;20040;-54
2021/01/30 11:17:23;;;;;;;7.05;3.50;;;20.20;77.00;;;;;;5075053;28;20131;-53
2021/01/30 11:19:51;;;;;;;5.40;2.88;;;20.10;77.30;;;;;;5091565;28;20109;-54
2021/01/30 11:22:24;;;;;;;7.05;4.22;;;20.10;77.00;;;;;;5091707;28;20493;-55
2021/01/30 11:25:05;;;;;;;5.78;2.47;;;20.10;76.20;;;;;;5092542;28;20047;-56
2021/01/30 11:27:40;;;;;;;4.22;2.67;;;20.10;76.30;;;;;;5092268;28;20044;-56
2021/01/30 11:30:10;;;;;;;5.63;2.33;;;20.10;75.90;;;;;;5084932;28;20047;-58
2021/01/30 11:32:50;;;;;;;5.93;2.78;;;20.00;76.30;;;;;;5076841;28;20040;-54
2021/01/30 11:35:24;;;;;;;7.57;3.25;;;20.00;75.80;;;;;;5096465;28;20135;-56
2021/01/30 11:37:53;;;;;;;4.75;2.75;;;19.90;75.20;;;;;;5074512;28;20144;-55
2021/01/30 11:40:20;;;;;;;7.85;3.47;;;19.90;75.70;;;;;;5047157;28;20052;-54
2021/01/30 11:42:47;;;;;;;7.32;2.90;;;19.90;76.40;;;;;;5109740;28;20494;-54
2021/01/30 11:45:15;;;;;;;6.40;3.03;;;19.90;76.40;;;;;;5094992;28;20474;-55
2021/01/30 11:47:42;;;;;;;7.30;2.38;;;19.80;75.80;;;;;;5095237;28;20097;-55
2021/01/30 11:50:10;;;;;;;6.68;3.13;;;19.90;74.80;;;;;;5077584;28;20056;-54
2021/01/30 11:52:37;;;;;;;5.13;2.47;;;19.80;74.80;;;;;;5094993;28;20063;-55
2021/01/30 11:55:07;;;;;;;5.68;3.33;;;19.90;74.00;;;;;;5097297;28;20055;-55
2021/01/30 11:57:35;;;;;;;4.85;3.08;;;19.80;74.30;;;;;;5061696;28;20056;-53
2021/01/30 12:00:05;;;;;;;6.07;3.22;;;19.80;74.70;;;;;;5094528;28;20044;-54
2021/01/30 12:02:37;;;;;;;8.85;3.65;;;19.70;74.50;;;;;;5074787;28;20045;-54
2021/01/30 12:05:12;;;;;;;5.43;2.30;;;19.70;74.50;;;;;;5074018;28;20045;-58
2021/01/30 12:07:40;;;;;;;9.45;3.33;;;19.70;74.80;;;;;;5056409;28;20614;-58
2021/01/30 12:10:08;;;;;;;7.18;3.65;;;19.70;75.90;;;;;;5074526;28;20048;-55
2021/01/30 12:12:36;;;;;;;6.43;3.13;;;19.70;76.50;;;;;;5074901;28;20045;-55
2021/01/30 12:15:09;;;;;;;6.68;3.65;;;19.60;76.70;;;;;;5074646;28;20041;-54
2021/01/30 12:17:42;;;;;;;9.00;3.78;;;19.60;77.70;;;;;;5058190;28;20110;-53
2021/01/30 12:20:21;;;;;;;6.47;3.80;;;19.50;77.70;;;;;;5075651;28;20052;-55
2021/01/30 12:22:48;;;;;;;5.25;3.03;;;19.50;77.40;;;;;;5074891;28;20413;-55
2021/01/30 12:25:18;;;;;;;8.27;3.53;;;19.40;78.50;;;;;;5074701;28;20070;-52
2021/01/30 12:27:52;;;;;;;10.70;3.90;;;19.40;79.10;;;;;;5056287;28;20064;-55
2021/01/30 12:30:41;;;;;;;11.65;3.45;;;19.30;79.50;;;;;;5056486;28;20505;-55
2021/01/30 12:33:09;;;;;;;8.77;4.30;;;19.30;79.60;;;;;;5052124;28;20497;-54
2021/01/30 12:35:36;;;;;;;8.18;3.75;;;19.20;79.00;;;;;;5035550;28;20144;-55
2021/01/30 12:38:05;;;;;;;6.20;3.10;;;19.30;79.10;;;;;;5035321;28;20099;-55
2021/01/30 12:40:42;;;;;;;9.82;3.30;;;19.10;79.40;;;;;;5035518;28;20052;-56
2021/01/30 12:43:12;;;;;;;7.10;3.42;;;19.10;80.30;;;;;;5018968;28;20044;-53
2021/01/30 12:45:39;;;;;;;6.53;3.78;;;19.10;80.10;;;;;;5051903;28;20063;-53
2021/01/30 12:48:07;;;;;;;6.13;3.83;;;19.00;79.20;;;;;;5051807;28;20144;-56
2021/01/30 12:50:35;;;;;;;4.78;3.35;;;18.90;78.90;;;;;;5052037;28;20049;-55
2021/01/30 12:53:03;;;;;;;10.35;4.78;;;18.90;79.60;;;;;;5019016;28;20047;-53
2021/01/30 12:55:31;;;;;;;6.63;3.95;;;18.90;79.40;;;;;;5035226;28;20104;-54
2021/01/30 12:58:14;;;;;;;8.10;4.70;;;18.80;79.50;;;;;;5035632;28;20200;-53
2021/01/30 13:00:41;;;;;;;7.07;3.97;;;18.90;79.50;;;;;;5017623;28;20069;-53
2021/01/30 13:03:10;;;;;;;8.13;3.97;;;18.70;80.10;;;;;;5037674;28;20045;-53
2021/01/30 13:05:39;;;;;;;6.30;3.20;;;18.80;80.40;;;;;;5072429;28;20045;-53
2021/01/30 13:08:06;;;;;;;8.25;3.28;;;18.60;79.30;;;;;;5089280;28;20044;-50
2021/01/30 13:10:34;;;;;;;6.45;3.05;;;18.50;78.70;;;;;;5089216;28;20120;-51
2021/01/30 13:13:03;;;;;;;14.88;3.95;;;18.30;78.60;;;;;;5072309;28;20067;-53
2021/01/30 13:15:30;;;;;;;6.82;3.92;;;18.20;79.50;;;;;;5072106;28;20084;-52
2021/01/30 13:17:58;;;;;;;5.97;3.10;;;18.20;79.70;;;;;;5088793;28;20382;-55
2021/01/30 13:20:35;;;;;;;7.70;3.25;;;18.20;79.80;;;;;;5087796;28;20054;-53
2021/01/30 13:23:06;;;;;;;6.55;3.63;;;18.20;80.00;;;;;;5071945;28;20390;-54
2021/01/30 13:25:33;;;;;;;9.77;5.53;;;18.20;79.80;;;;;;5088918;28;20071;-50
2021/01/30 13:28:00;;;;;;;7.80;4.47;;;18.20;79.80;;;;;;5073074;28;20036;-55